Sunday, January 20, 2019, 1:56 AM EST
Back to Local

KRME, Griffiss Airfield

Location: Rome, NY, United States Lat: 43.233
Local Time: 1:56 AM EST ( 6:56 GMT) Lon: -75.4
Time Zone: US/Eastern Elev: 505 ft

Show me the last for .
Show Decoded

2019-01-20 00:53 METAR KRME 200553Z AUTO 14008KT 1/2SM SN FZFG VV005 M10/M11 A2981 RMK AO2 PRESFR
                 SLP102 P0000 60000 T11001111 11067 21106 58058 RVRNO =
2019-01-19 23:53 METAR KRME 200453Z AUTO 15007KT 1/2SM SN FZFG VV005 M10/M11 A2988 RMK AO2 PRESFR
                 SLP124 P0000 T11001106 410281100 RVRNO =
2019-01-19 22:53 METAR KRME 200353Z AUTO 14008KT 1/2SM SN FZFG VV007 M09/M10 A2994 RMK AO2 SLP145
                 P0000 T10891100 RVRNO =
2019-01-19 21:53 METAR KRME 200253Z AUTO 14006KT 1/2SM SN FZFG VV008 M09/M10 A2999 RMK AO2 SLP161
                 P0000 60000 T10891100 58034 RVRNO =
2019-01-19 21:43 METAR KRME 200243Z AUTO 14006KT 3/4SM -SN BR VV009 M09/M10 A2999 RMK AO2 P0000
                 T10891100 RVRNO =
2019-01-19 21:31 METAR KRME 200231Z AUTO 13006KT 3/4SM -SN BR VV010 M09/M10 A3000 RMK AO2 P0000
                 T10891100 RVRNO =
2019-01-19 21:23 METAR KRME 200223Z AUTO 13006KT 1SM -SN BR VV010 M09/M10 A3001 RMK AO2 P0000
                 T10891100 RVRNO =
2019-01-19 20:53 METAR KRME 200153Z 13008KT 3/4SM -SN BR VV011 M08/M10 A3003 RMK AO2 SLP177 P0000
                 T10831100 RVRNO =
2019-01-19 20:19 METAR KRME 200119Z 14007KT 3/4SM -SN BR VV010 M08/M09 A3004 RMK AO2 P0000
                 T10781089 RVRNO =
2019-01-19 19:53 METAR KRME 200053Z 13007KT 3/4SM -SN BR VV009 M08/M09 A3005 RMK AO2 SLP184 P0000
                 T10781089 RVRNO =
2019-01-19 19:42 METAR KRME 200042Z 13009KT 3/4SM -SN BR VV014 M07/M09 A3006 RMK AO2 P0000
                 T10721089 RVRNO =
2019-01-19 19:34 METAR KRME 200034Z 13008KT 1 1/4SM -SN BR OVC021 M07/M08 A3006 RMK AO2 P0000
                 T10671083 =
2019-01-19 19:24 METAR KRME 200024Z 12008KT 2 1/2SM -SN BR OVC029 M07/M08 A3007 RMK AO2 P0000
                 T10671078 =
2019-01-19 19:10 METAR KRME 200010Z 12007KT 3SM -SN BR OVC033 M07/M08 A3007 RMK AO2 P0000
                 T10671083 =
2019-01-19 18:53 METAR KRME 192353Z 11007KT 2SM -SN BR OVC030 M07/M08 A3009 RMK AO2 SLP196 P0000
                 60000 T10671078 11061 21083 55010 =
2019-01-19 18:49 METAR KRME 192349Z 11006KT 1 1/2SM -SN BR OVC028 M07/M08 A3009 RMK AO2 P0000 =
2019-01-19 18:41 METAR KRME 192341Z 12007KT 2SM -SN BR BKN030 OVC055 M07/M08 A3009 RMK AO2 P0000
                 T10671083 =
2019-01-19 18:09 METAR KRME 192309Z 13006KT 3SM -SN BR SCT029 OVC060 M07/M08 A3011 RMK AO2 P0000
                 T10671083 =
2019-01-19 18:05 METAR KRME 192305Z 13008KT 2 1/2SM -SN BR BKN029 OVC065 M07/M08 A3011 RMK AO2
                 P0000 T10721083 =
2019-01-19 17:53 METAR KRME 192253Z 11007KT 2SM -SN BR OVC031 M07/M08 A3011 RMK AO2 SLP204 P0000
                 T10671083 =
2019-01-19 17:22 METAR KRME 192222Z 09006KT 3SM -SN BR OVC035 M07/M08 A3012 RMK AO2 P0000
                 T10671078 =
2019-01-19 17:11 METAR KRME 192211Z 10006KT 2 1/2SM -SN BR OVC027 M06/M08 A3012 RMK AO2 P0000
                 T10611078 =
2019-01-19 16:53 METAR KRME 192153Z 10009KT 1 1/4SM -SN BR OVC021 M06/M08 A3012 RMK AO2 SLP206
                 P0000 T10611078 =
2019-01-19 16:49 METAR KRME 192149Z 10008KT 1 1/4SM -SN BR OVC021 M06/M08 A3012 RMK AO2 P0000 =
2019-01-19 16:40 METAR KRME 192140Z 09009KT 3/4SM -SN BR VV017 M06/M08 A3013 RMK AO2 P0000
                 T10611078 RVRNO =
2019-01-19 15:53 METAR KRME 192053Z 11008KT 3/4SM -SN BR VV014 M06/M08 A3015 RMK AO2 SLP218 P0000
                 60000 T10611078 56015 RVRNO =
2019-01-19 15:38 METAR KRME 192038Z 10008KT 1/2SM SN FZFG VV013 M06/M08 A3016 RMK AO2 P0000
                 T10611078 RVRNO =
2019-01-19 15:26 METAR KRME 192026Z 10007KT 3/4SM -SN BR VV017 M06/M07 A3016 RMK AO2 P0000
                 T10611072 RVRNO =
2019-01-19 14:53 METAR KRME 191953Z 10004KT 1 3/4SM -SN BR OVC024 M06/M08 A3016 RMK AO2 SLP220
                 P0000 T10611078 =
2019-01-19 14:32 METAR KRME 191932Z 00000KT 1SM -SN BR VV016 M07/M08 A3016 RMK AO2 P0000
                 T10721083 RVRNO =
2019-01-19 13:53 METAR KRME 191853Z 00000KT 3/4SM -SN BR VV014 M08/M09 A3018 RMK AO2 SLP227 P0000
                 T10831094 RVRNO =
2019-01-19 13:45 METAR KRME 191845Z 30003KT 3/4SM -SN BR VV015 M08/M09 A3019 RMK AO2 P0000
                 T10831094 RVRNO =
2019-01-19 13:36 METAR KRME 191836Z 29004KT 1SM -SN BR VV016 M08/M10 A3019 RMK AO2 P0000
                 T10831100 RVRNO =
2019-01-19 13:08 METAR KRME 191808Z 30005KT 3/4SM -SN BR VV018 M09/M11 A3019 RMK AO2 P0000
                 T10891106 RVRNO =
2019-01-19 13:00 METAR KRME 191800Z 30005KT 1SM -SN BR BKN021 OVC030 M08/M10 A3020 RMK AO2 P0000
                 T10831100 RVRNO =
2019-01-19 12:53 METAR KRME 191753Z 28003KT 2SM -SN BR BKN023 OVC033 M08/M09 A3020 RMK AO2 SLP233
                 P0000 60000 T10831094 11078 21100 56031 =
2019-01-19 12:50 METAR KRME 191750Z 27004KT 2SM -SN BR BKN025 OVC033 M08/M10 A3020 RMK AO2 P0000
                 =
2019-01-19 12:30 METAR KRME 191730Z 30004KT 2SM -SN BR OVC034 M08/M10 A3021 RMK AO2 P0000
                 T10781100 =
2019-01-19 11:53 METAR KRME 191653Z VRB03KT 2SM -SN BR BKN027 OVC034 M08/M11 A3025 RMK AO2 SNB30
                 SLP251 P0000 T10831106 =
2019-01-19 11:42 METAR KRME 191642Z 00000KT 2 1/2SM -SN BKN029 OVC036 M08/M12 A3026 RMK AO2 SNB30
                 P0000 T10831117 =
2019-01-19 10:53 METAR KRME 191553Z 28004KT 10SM OVC070 M09/M13 A3029 RMK AO2 SLP265 T10891128 =
2019-01-19 09:53 METAR KRME 191453Z 00000KT 10SM OVC037 M09/M13 A3031 RMK AO2 SLP269 T10891128
                 51010 =
2019-01-19 08:53 METAR KRME 191353Z 00000KT 10SM OVC037 M09/M13 A3030 RMK AO2 SLP268 T10941133 =
2019-01-19 07:53 METAR KRME 191253Z 31006KT 10SM OVC037 M10/M13 A3030 RMK AO2 SLP266 T11001133 =
2019-01-19 06:53 METAR KRME 191153Z 33005KT 10SM OVC037 M09/M13 A3027 RMK AO2 PRESRR SLP259
                 T10941128 11039 21094 53010 =
2019-01-19 05:53 METAR KRME 191053Z AUTO 01004KT 10SM OVC039 M09/M13 A3025 RMK AO2 SLP251
                 T10941133 =
2019-01-19 04:53 METAR KRME 190953Z AUTO 02008KT 10SM OVC037 M09/M13 A3025 RMK AO2 SLP249
                 T10891128 =
2019-01-19 03:53 METAR KRME 190853Z AUTO 35008KT 10SM OVC037 M07/M11 A3024 RMK AO2 SLP247
                 T10721111 51021 =
2019-01-19 02:53 METAR KRME 190753Z AUTO 36005KT 10SM OVC040 M07/M10 A3023 RMK AO2 SLP242
                 T10671100 =

Support USWX by starting your Amazon purchase here.